KARR/ARR METAR and TAF weather

Enter ICAO airport designator
Station Type Date Time Source
KARR METAR 2018/04/23 10:52 UTC NOAA

KARR 231052Z AUTO 04007KT 10SM CLR 06/M03 A3019 RMK AO2 SLP226 T00561028 $


Station Type Date Time Source
KARR Decoded METAR 2018/04/23 10:52 UTC NOAA

CHICAGO AURORA MUNICIPAL, IL, United States (KARR) 41-46N 088-28W 215M
Apr 23, 2018 - 06:52 AM EDT / 2018.04.23 1052 UTC
Wind: from the NE (040 degrees) at 8 MPH (7 KT):0
Visibility: 10 mile(s):0
Sky conditions: clear
Temperature: 42.1 F (5.6 C)
Dew Point: 27.0 F (-2.8 C)
Relative Humidity: 54%
Pressure (altimeter): 30.19 in. Hg (1022 hPa)
ob: KARR 231052Z AUTO 04007KT 10SM CLR 06/M03 A3019 RMK AO2 SLP226 T00561028
cycle: 11

Station Type Date Time Source
KARR TAF UTC NOAA

Error!


Example: see airport list